Aeroporto :
LOGIN :

Iscrizione | Disclaimer

   EN    FR    IT 

 










Sommario :    VFR   VFR Marginale   IFR   IFR Intensivo   IFR Molto Intensivo
Visibilità : 
Base nubi : 
>= 8 km
>= 3000ft
5 / 8 km
1000 / 3000 ft
1500m / 5 km
500 / 1000 ft
800 / 1500m
200 / 500 ft
< 800m
< 200 ft
Simboli :   Temporali  Nebbia  Neve Forte  Precipitazioni Forti  Vento > 20 kt
SIGMETs :   Varie  Temporali  Ghiacco  Turbolenza  Onda orograficha  Ceneri Vulcaniche






- Altitudine del aeroporto : 1649 ft
- Codice IATA : HHN


EDFH - Frankfurt-Hahn Rhineland-Palatinate

ULTIMO METAR :
  • 072250Z 23006KT CAVOK 14/07 Q1018

METARs OBSOLETI :
  • 072220Z 23007KT CAVOK 14/07 Q1018
  • 072150Z 23006KT CAVOK 15/07 Q1018
  • 072120Z 24005KT CAVOK 15/07 Q1018
  • 072050Z 24006KT CAVOK 15/07 Q1019
  • 072020Z 23006KT CAVOK 15/07 Q1019
  • 071950Z 25005KT CAVOK 15/06 Q1019

TAF TAF EDFH
Valido dal 07 a 18 ore il 08 a 18 ore UTC


071700Z 0718/0818 28008KT CAVOK
BECMG 0719/0721 19005KT
BECMG 0803/0805 26007KT
BECMG 0805/0807 26012KT
TEMPO 0813/0818 4000 RADZ BKN012



MetMap, La meteo Aeronautica in un colpo d'occhio ! - Copyright ORBIFLY Dicembre 2007 - Disclaimer

ORBIFLY MET'MAP TEAM :

Programmazione e sviluppo : Alexandra Zaïnal
Concezione : Baudouin d'Aumeries
Aiuto per la programmazione : Marc-Olivier Méhu
Supporto tecnico e logistico : Manuel Goepfert
Aiuto per la traduzione : Arnaldo La Scala

Contatto : metmap@orbifly.com




FONTI E CREDITI :

   NOAA